createdAt,value
2019-05-03T00:00:44.426Z,8.00
2019-05-03T00:03:13.784Z,8.60
2019-05-03T00:05:48.059Z,8.20
2019-05-03T00:08:16.415Z,11.67
2019-05-03T00:10:44.985Z,9.33
2019-05-03T00:13:13.682Z,11.23
2019-05-03T00:16:12.225Z,9.13
2019-05-03T00:18:42.202Z,9.20
2019-05-03T00:21:11.700Z,9.00
2019-05-03T00:23:41.791Z,12.77
2019-05-03T00:26:11.984Z,14.00
2019-05-03T00:28:42.592Z,9.87
2019-05-03T00:31:12.468Z,7.63
2019-05-03T00:33:42.675Z,11.43
2019-05-03T00:36:26.490Z,11.40
2019-05-03T00:38:59.309Z,11.30
2019-05-03T00:41:27.775Z,12.63
2019-05-03T00:43:56.628Z,10.93
2019-05-03T00:46:25.082Z,10.10
2019-05-03T00:48:53.624Z,9.53
2019-05-03T00:51:22.521Z,11.53
2019-05-03T00:53:53.138Z,15.23
2019-05-03T00:56:21.940Z,14.37
2019-05-03T00:58:57.289Z,13.10
2019-05-03T01:01:25.873Z,11.97
2019-05-03T01:03:54.544Z,14.07
2019-05-03T01:06:23.264Z,14.57
2019-05-03T01:08:52.645Z,15.83
2019-05-03T01:11:22.298Z,12.10
2019-05-03T01:13:52.205Z,14.50
2019-05-03T01:16:22.688Z,14.83
2019-05-03T01:18:52.329Z,10.33
2019-05-03T01:21:22.624Z,13.27
2019-05-03T01:23:52.583Z,12.03
2019-05-03T01:26:22.645Z,13.03
2019-05-03T01:28:52.283Z,14.10
2019-05-03T01:31:22.541Z,13.10
2019-05-03T01:33:51.641Z,14.20
2019-05-03T01:36:22.609Z,16.73
2019-05-03T01:38:52.917Z,13.97
2019-05-03T01:41:23.109Z,15.17
2019-05-03T01:43:52.620Z,17.27
2019-05-03T01:46:22.775Z,15.13
2019-05-03T01:49:07.144Z,16.53
2019-05-03T01:51:53.694Z,15.20
2019-05-03T01:54:23.360Z,14.30
2019-05-03T01:56:58.675Z,17.53
2019-05-03T01:59:22.676Z,11.43
2019-05-03T02:02:23.108Z,13.40
2019-05-03T02:05:11.891Z,14.33
2019-05-03T02:07:42.297Z,13.97
2019-05-03T02:10:11.901Z,13.30
2019-05-03T02:12:41.736Z,14.57
2019-05-03T02:15:11.851Z,15.17
2019-05-03T02:17:42.523Z,15.67
2019-05-03T02:20:12.593Z,13.70
2019-05-03T02:22:42.803Z,11.77
2019-05-03T02:25:12.358Z,15.07
2019-05-03T02:27:42.328Z,11.30
2019-05-03T02:30:14.493Z,13.37
2019-05-03T02:32:43.884Z,13.73
2019-05-03T02:35:13.984Z,13.13
2019-05-03T02:37:44.552Z,13.33
2019-05-03T02:40:20.196Z,15.80
2019-05-03T02:43:05.965Z,12.33
2019-05-03T02:45:38.575Z,12.87
2019-05-03T02:48:20.340Z,13.53
2019-05-03T02:50:48.647Z,13.43
2019-05-03T02:53:17.845Z,14.90
2019-05-03T02:55:52.267Z,12.30
2019-05-03T02:58:21.950Z,14.20
2019-05-03T03:00:56.334Z,13.77
2019-05-03T03:03:26.482Z,12.53
2019-05-03T03:05:56.148Z,15.83
2019-05-03T03:08:26.486Z,13.77
2019-05-03T03:10:58.381Z,14.47
2019-05-03T03:13:29.235Z,13.37
2019-05-03T03:16:02.052Z,14.27
2019-05-03T03:18:36.151Z,13.43
2019-05-03T03:21:06.118Z,14.40
2019-05-03T03:24:06.339Z,13.07
2019-05-03T03:26:41.375Z,12.27
2019-05-03T03:29:07.515Z,12.63
2019-05-03T03:31:58.684Z,13.80
2019-05-03T03:34:38.063Z,12.33
2019-05-03T03:37:06.579Z,10.37
2019-05-03T03:39:36.143Z,11.30
2019-05-03T03:42:05.959Z,12.23
2019-05-03T03:44:36.384Z,13.03
2019-05-03T03:47:05.511Z,14.70
2019-05-03T03:49:37.326Z,13.73
2019-05-03T03:52:07.395Z,12.47
2019-05-03T03:54:39.088Z,12.93
2019-05-03T03:57:11.487Z,15.47
2019-05-03T03:59:39.987Z,12.67
2019-05-03T04:02:08.328Z,12.43
2019-05-03T04:04:37.003Z,14.93
2019-05-03T04:07:06.627Z,11.43
2019-05-03T04:09:36.661Z,14.03
2019-05-03T04:12:06.241Z,12.10
2019-05-03T04:14:50.893Z,12.23
2019-05-03T04:17:57.567Z,12.27
2019-05-03T04:20:28.710Z,12.63
2019-05-03T04:22:57.405Z,12.03
2019-05-03T04:25:26.554Z,12.60
2019-05-03T04:27:56.162Z,13.13
2019-05-03T04:30:25.710Z,12.27
2019-05-03T04:32:56.422Z,12.87
2019-05-03T04:35:26.582Z,11.83
2019-05-03T04:37:56.064Z,13.13
2019-05-03T04:40:25.911Z,13.40
2019-05-03T04:42:55.740Z,13.10
2019-05-03T04:45:25.469Z,12.57
2019-05-03T04:47:55.999Z,14.10
2019-05-03T04:50:26.098Z,15.97
2019-05-03T04:52:56.569Z,16.33
2019-05-03T04:55:26.711Z,14.10
2019-05-03T04:57:58.492Z,16.17
2019-05-03T05:00:27.279Z,13.13
2019-05-03T05:02:55.951Z,14.50
2019-05-03T05:05:26.148Z,15.10
2019-05-03T05:07:55.691Z,14.80
2019-05-03T05:10:26.161Z,13.13
2019-05-03T05:12:55.375Z,11.83
2019-05-03T05:15:26.477Z,14.83
2019-05-03T05:18:17.419Z,15.40
2019-05-03T05:21:05.295Z,13.50
2019-05-03T05:23:39.033Z,13.33
2019-05-03T05:26:15.648Z,12.57
2019-05-03T05:28:50.013Z,10.83
2019-05-03T05:31:25.476Z,15.57
2019-05-03T05:33:55.621Z,16.70
2019-05-03T05:36:24.411Z,14.67
2019-05-03T05:38:55.231Z,10.93
2019-05-03T05:41:25.167Z,12.87
2019-05-03T05:43:55.004Z,15.63
2019-05-03T05:46:28.158Z,15.93
2019-05-03T05:48:58.446Z,14.77
2019-05-03T05:51:27.419Z,15.77
2019-05-03T05:54:05.112Z,15.10
2019-05-03T05:56:51.160Z,14.03
2019-05-03T05:59:55.326Z,14.87
2019-05-03T06:02:26.597Z,16.20
2019-05-03T06:05:00.652Z,15.93
2019-05-03T06:07:56.190Z,12.40
2019-05-03T06:10:40.036Z,12.10
2019-05-03T06:13:37.904Z,14.77
2019-05-03T06:16:18.407Z,13.00
2019-05-03T06:19:05.218Z,12.33
2019-05-03T06:22:05.208Z,16.07
2019-05-03T06:24:45.227Z,15.47
2019-05-03T06:27:25.693Z,11.73
2019-05-03T06:30:01.566Z,10.60
2019-05-03T06:32:45.880Z,12.27
2019-05-03T06:35:20.548Z,13.40
2019-05-03T06:37:57.807Z,10.00
2019-05-03T06:40:32.118Z,12.87
2019-05-03T06:43:11.355Z,13.30
2019-05-03T06:45:41.116Z,11.67
2019-05-03T06:48:15.716Z,14.50
2019-05-03T06:50:48.369Z,14.37
2019-05-03T06:53:20.273Z,13.43
2019-05-03T06:55:52.659Z,15.60
2019-05-03T06:58:33.208Z,14.50
2019-05-03T07:01:21.057Z,14.03
2019-05-03T07:04:15.244Z,12.73
2019-05-03T07:06:59.558Z,11.83
2019-05-03T07:09:48.940Z,13.03
2019-05-03T07:12:25.021Z,14.33
2019-05-03T07:15:05.126Z,12.03
2019-05-03T07:17:38.938Z,13.13
2019-05-03T07:20:11.358Z,14.33
2019-05-03T07:22:44.763Z,16.47
2019-05-03T07:25:19.144Z,11.33
2019-05-03T07:27:55.274Z,10.93
2019-05-03T07:30:26.201Z,11.27
2019-05-03T07:33:05.911Z,11.70
2019-05-03T07:35:37.589Z,13.87
2019-05-03T07:38:10.007Z,16.13
2019-05-03T07:40:46.944Z,14.63
2019-05-03T07:43:19.028Z,15.93
2019-05-03T07:45:52.112Z,16.07
2019-05-03T07:48:25.651Z,14.23
2019-05-03T07:51:02.153Z,11.97
2019-05-03T07:53:37.209Z,12.83
2019-05-03T07:56:15.523Z,9.90
2019-05-03T07:59:02.622Z,10.47
2019-05-03T08:01:38.939Z,12.33
2019-05-03T08:04:21.890Z,13.10
2019-05-03T08:06:54.914Z,13.43
2019-05-03T08:09:32.405Z,12.50
2019-05-03T08:12:05.125Z,13.63
2019-05-03T08:14:40.199Z,12.40
2019-05-03T08:17:12.793Z,12.50
2019-05-03T08:19:45.348Z,12.97
2019-05-03T08:22:17.958Z,12.77
2019-05-03T08:24:55.525Z,11.80
2019-05-03T08:27:26.624Z,13.37
2019-05-03T08:30:00.394Z,13.93
2019-05-03T08:32:50.579Z,11.53
2019-05-03T08:35:40.336Z,10.73
2019-05-03T08:38:16.048Z,16.00
2019-05-03T08:40:54.817Z,11.77
2019-05-03T08:43:26.073Z,11.67
2019-05-03T08:46:00.090Z,10.33
2019-05-03T08:48:35.226Z,9.47
2019-05-03T08:51:14.869Z,11.83
2019-05-03T08:53:49.198Z,11.57
2019-05-03T08:56:21.002Z,11.93
2019-05-03T08:58:52.718Z,12.13
2019-05-03T09:01:29.612Z,11.30
2019-05-03T09:04:04.818Z,9.57
2019-05-03T09:06:47.779Z,10.47
2019-05-03T09:09:38.536Z,10.13
2019-05-03T09:12:18.297Z,10.53
2019-05-03T09:14:49.926Z,9.30
2019-05-03T09:17:26.842Z,10.77
2019-05-03T09:19:55.839Z,14.37
2019-05-03T09:22:28.195Z,11.13
2019-05-03T09:25:05.120Z,9.60
2019-05-03T09:27:36.653Z,11.83
2019-05-03T09:30:08.473Z,10.70
2019-05-03T09:32:40.590Z,10.60
2019-05-03T09:35:29.058Z,11.80
2019-05-03T09:37:49.317Z,10.67
2019-05-03T09:40:20.597Z,9.53
2019-05-03T09:42:54.632Z,10.13
2019-05-03T09:45:27.179Z,10.27
2019-05-03T09:48:00.513Z,12.47
2019-05-03T09:50:32.812Z,11.30
2019-05-03T09:53:05.491Z,9.93
2019-05-03T09:55:41.100Z,11.10
2019-05-03T09:58:15.345Z,9.97
2019-05-03T10:00:52.381Z,10.70
2019-05-03T10:03:25.746Z,12.93
2019-05-03T10:06:00.045Z,9.37
2019-05-03T10:08:32.607Z,9.30
2019-05-03T10:11:12.169Z,10.13
2019-05-03T10:13:51.688Z,9.10
2019-05-03T10:16:26.299Z,12.10
2019-05-03T10:19:05.310Z,10.63
2019-05-03T10:21:45.683Z,9.93
2019-05-03T10:24:18.385Z,11.20
2019-05-03T10:26:55.192Z,11.30
2019-05-03T10:29:27.082Z,12.40
2019-05-03T10:32:15.141Z,9.57
2019-05-03T10:34:58.720Z,8.63
2019-05-03T10:37:35.685Z,7.93
2019-05-03T10:40:08.114Z,9.80
2019-05-03T10:42:39.957Z,8.27
2019-05-03T10:45:11.581Z,7.27
2019-05-03T10:47:42.927Z,10.37
2019-05-03T10:50:16.657Z,8.23
2019-05-03T10:52:55.072Z,7.73
2019-05-03T10:55:29.350Z,6.60
2019-05-03T10:58:16.101Z,7.63
2019-05-03T11:00:53.336Z,7.63
2019-05-03T11:03:23.788Z,9.27
2019-05-03T11:05:55.454Z,8.50
2019-05-03T11:08:26.610Z,10.07
2019-05-03T11:10:59.295Z,6.83
2019-05-03T11:13:35.934Z,9.20
2019-05-03T11:16:08.068Z,8.47
2019-05-03T11:18:41.695Z,9.27
2019-05-03T11:21:14.431Z,7.67
2019-05-03T11:23:54.422Z,6.17
2019-05-03T11:26:25.421Z,9.50
2019-05-03T11:29:00.715Z,7.97
2019-05-03T11:32:09.272Z,6.73
2019-05-03T11:34:46.011Z,7.03
2019-05-03T11:37:36.764Z,6.40
2019-05-03T11:41:00.820Z,7.20
2019-05-03T11:43:35.001Z,6.57
2019-05-03T11:46:06.489Z,7.27
2019-05-03T11:48:40.799Z,6.93
2019-05-03T11:51:15.188Z,7.57
2019-05-03T11:53:48.173Z,8.63
2019-05-03T11:56:27.556Z,7.30
2019-05-03T11:58:58.731Z,7.63
2019-05-03T12:01:55.400Z,10.03
2019-05-03T12:04:29.698Z,8.80
2019-05-03T12:07:05.968Z,9.30
2019-05-03T12:09:37.359Z,10.17
2019-05-03T12:12:15.184Z,7.73
2019-05-03T12:14:49.826Z,8.20
2019-05-03T12:17:29.403Z,9.70
2019-05-03T12:20:03.626Z,7.60
2019-05-03T12:22:35.929Z,9.57
2019-05-03T12:25:11.503Z,7.73
2019-05-03T12:27:45.542Z,7.63
2019-05-03T12:30:20.871Z,8.77
2019-05-03T12:32:54.484Z,7.47
2019-05-03T12:35:26.136Z,8.40
2019-05-03T12:37:58.196Z,8.73
2019-05-03T12:40:27.285Z,8.43
2019-05-03T12:42:55.965Z,7.33
2019-05-03T12:45:27.580Z,8.03
2019-05-03T12:48:00.386Z,9.03
2019-05-03T12:50:34.870Z,10.70
2019-05-03T12:53:07.535Z,7.53
2019-05-03T12:55:44.690Z,9.60
2019-05-03T12:58:15.883Z,8.13
2019-05-03T13:01:07.540Z,7.93
2019-05-03T13:03:44.718Z,5.47
2019-05-03T13:06:19.720Z,9.20
2019-05-03T13:08:52.212Z,8.10
2019-05-03T13:11:25.256Z,6.00
2019-05-03T13:13:58.821Z,9.37
2019-05-03T13:16:31.056Z,8.63
2019-05-03T13:19:07.855Z,7.03
2019-05-03T13:21:39.390Z,7.77
2019-05-03T13:24:23.349Z,8.83
2019-05-03T13:26:53.293Z,11.50
2019-05-03T13:29:27.822Z,7.50
2019-05-03T13:32:02.179Z,6.60
2019-05-03T13:34:35.438Z,7.93
2019-05-03T13:37:07.289Z,10.83
2019-05-03T13:39:38.767Z,8.83
2019-05-03T13:42:13.930Z,9.10
2019-05-03T13:44:50.011Z,9.30
2019-05-03T13:47:25.519Z,11.60
2019-05-03T13:50:01.353Z,7.10
2019-05-03T13:52:45.329Z,8.43
2019-05-03T13:55:17.780Z,8.83
2019-05-03T13:57:54.875Z,11.73
2019-05-03T14:00:31.921Z,9.80
2019-05-03T14:03:08.015Z,8.63
2019-05-03T14:05:39.650Z,10.10
2019-05-03T14:08:12.635Z,9.03
2019-05-03T14:10:46.209Z,8.23
2019-05-03T14:13:21.418Z,6.83
2019-05-03T14:15:58.412Z,6.33
2019-05-03T14:18:31.038Z,5.93
2019-05-03T14:21:20.252Z,5.40
2019-05-03T14:24:12.821Z,6.20
2019-05-03T14:26:51.273Z,9.33
2019-05-03T14:29:30.924Z,3.97
2019-05-03T14:32:05.266Z,8.17
2019-05-03T14:34:45.271Z,5.70
2019-05-03T14:37:18.519Z,5.97
2019-05-03T14:39:54.971Z,7.03
2019-05-03T14:42:27.150Z,6.37
2019-05-03T14:44:58.420Z,6.37
2019-05-03T14:47:29.400Z,6.70
2019-05-03T14:50:06.688Z,6.60
2019-05-03T14:52:39.698Z,7.17
2019-05-03T14:55:48.614Z,4.83
2019-05-03T14:58:48.550Z,6.50
2019-05-03T15:01:29.326Z,7.00
2019-05-03T15:04:05.898Z,4.57
2019-05-03T15:06:41.950Z,8.30
2019-05-03T15:09:18.569Z,6.43
2019-05-03T15:11:50.783Z,4.83
2019-05-03T15:14:25.143Z,5.67
2019-05-03T15:16:57.308Z,4.93
2019-05-03T15:19:40.605Z,2.60
2019-05-03T15:22:16.097Z,4.97
2019-05-03T15:24:54.573Z,6.50
2019-05-03T15:27:25.953Z,3.37
2019-05-03T15:30:01.369Z,4.67
2019-05-03T15:32:35.356Z,4.00
2019-05-03T15:35:15.206Z,4.20
2019-05-03T15:37:47.098Z,3.80
2019-05-03T15:40:20.360Z,4.40
2019-05-03T15:43:31.028Z,4.90
2019-05-03T15:46:25.237Z,3.37
2019-05-03T15:48:59.989Z,4.33
2019-05-03T15:51:40.599Z,4.07
2019-05-03T15:54:12.074Z,7.17
2019-05-03T15:56:46.676Z,6.70
2019-05-03T15:59:18.210Z,7.80
2019-05-03T16:01:55.183Z,5.33
2019-05-03T16:04:26.061Z,5.33
2019-05-03T16:07:00.098Z,8.50
2019-05-03T16:09:35.736Z,4.90
2019-05-03T16:12:05.122Z,4.60
2019-05-03T16:14:35.033Z,5.50
2019-05-03T16:17:08.724Z,5.23
2019-05-03T16:19:47.384Z,6.47
2019-05-03T16:22:19.440Z,6.10
2019-05-03T16:24:57.549Z,4.80
2019-05-03T16:27:58.575Z,5.07
2019-05-03T16:30:36.640Z,4.20
2019-05-03T16:33:08.907Z,7.23
2019-05-03T16:35:41.087Z,5.70
2019-05-03T16:38:12.478Z,3.10
2019-05-03T16:40:54.533Z,3.93
2019-05-03T16:43:29.056Z,4.90
2019-05-03T16:46:00.138Z,5.93
2019-05-03T16:48:35.298Z,6.53
2019-05-03T16:51:10.818Z,5.67
2019-05-03T16:53:42.152Z,5.77
2019-05-03T16:56:16.650Z,6.37
2019-05-03T16:58:46.617Z,5.00
2019-05-03T17:01:24.429Z,7.37
2019-05-03T17:04:02.600Z,3.80
2019-05-03T17:06:52.806Z,4.67
2019-05-03T17:09:59.984Z,3.07
2019-05-03T17:12:32.632Z,6.53
2019-05-03T17:15:05.160Z,6.27
2019-05-03T17:17:42.329Z,3.43
2019-05-03T17:20:16.593Z,4.60
2019-05-03T17:22:48.649Z,4.60
2019-05-03T17:25:22.220Z,5.27
2019-05-03T17:27:58.741Z,4.70
2019-05-03T17:30:35.114Z,6.43
2019-05-03T17:33:04.633Z,6.03
2019-05-03T17:35:40.769Z,5.77
2019-05-03T17:38:13.353Z,6.73
2019-05-03T17:41:08.398Z,6.13
2019-05-03T17:43:45.151Z,6.20
2019-05-03T17:46:21.299Z,6.37
2019-05-03T17:48:54.754Z,5.90
2019-05-03T17:51:57.642Z,5.70
2019-05-03T17:55:01.917Z,6.53
2019-05-03T17:57:49.745Z,5.43
2019-05-03T18:00:59.588Z,4.80
2019-05-03T18:03:39.677Z,8.00
2019-05-03T18:06:22.480Z,5.50
2019-05-03T18:09:04.927Z,6.87
2019-05-03T18:11:46.928Z,6.30
2019-05-03T18:14:18.882Z,8.40
2019-05-03T18:16:50.906Z,7.67
2019-05-03T18:19:22.278Z,5.97
2019-05-03T18:21:53.043Z,6.10
2019-05-03T18:24:24.711Z,8.10
2019-05-03T18:26:56.396Z,6.57
2019-05-03T18:29:30.995Z,6.93
2019-05-03T18:32:02.171Z,6.13
2019-05-03T18:34:35.690Z,7.67
2019-05-03T18:37:11.178Z,6.00
2019-05-03T18:39:47.146Z,6.33
2019-05-03T18:42:32.381Z,7.10
2019-05-03T18:45:19.438Z,6.63
2019-05-03T18:47:55.881Z,5.90
2019-05-03T18:50:30.220Z,7.93
2019-05-03T18:53:01.700Z,9.03
2019-05-03T18:55:35.380Z,9.07
2019-05-03T18:58:09.352Z,7.90
2019-05-03T19:00:48.438Z,9.30
2019-05-03T19:03:22.827Z,9.40
2019-05-03T19:05:56.625Z,7.90
2019-05-03T19:08:51.038Z,9.00
2019-05-03T19:11:42.254Z,8.87
2019-05-03T19:14:27.400Z,8.60
2019-05-03T19:17:30.021Z,8.97
2019-05-03T19:20:18.384Z,8.93
2019-05-03T19:22:49.703Z,9.57
2019-05-03T19:25:21.392Z,9.93
2019-05-03T19:28:05.377Z,9.83
2019-05-03T19:30:39.476Z,10.70
2019-05-03T19:33:12.412Z,9.57
2019-05-03T19:35:47.352Z,8.87
2019-05-03T19:38:24.585Z,7.93
2019-05-03T19:41:01.360Z,10.40
2019-05-03T19:43:35.576Z,9.00
2019-05-03T19:46:09.156Z,10.87
2019-05-03T19:48:50.548Z,10.90
2019-05-03T19:51:24.598Z,8.90
2019-05-03T19:53:55.788Z,11.13
2019-05-03T19:56:33.695Z,12.63
2019-05-03T19:59:14.814Z,11.40
2019-05-03T20:01:56.817Z,12.10
2019-05-03T20:04:57.668Z,12.93
2019-05-03T20:07:41.931Z,10.33
2019-05-03T20:10:14.655Z,11.30
2019-05-03T20:12:44.088Z,11.20
2019-05-03T20:15:14.516Z,10.00
2019-05-03T20:17:54.681Z,9.17
2019-05-03T20:20:15.890Z,11.80
2019-05-03T20:22:47.794Z,10.90
2019-05-03T20:25:24.894Z,10.60
2019-05-03T20:28:09.971Z,8.17
2019-05-03T20:30:45.290Z,10.33
2019-05-03T20:33:15.069Z,12.37
2019-05-03T20:35:45.157Z,11.57
2019-05-03T20:38:15.208Z,12.50
2019-05-03T20:40:45.037Z,9.37
2019-05-03T20:43:27.427Z,10.77
2019-05-03T20:46:18.447Z,11.27
2019-05-03T20:48:49.540Z,10.07
2019-05-03T20:51:18.303Z,11.67
2019-05-03T20:53:47.020Z,11.43
2019-05-03T20:56:15.665Z,10.87
2019-05-03T20:58:44.769Z,11.60
2019-05-03T21:01:15.159Z,9.30
2019-05-03T21:03:44.962Z,11.17
2019-05-03T21:06:15.232Z,12.77
2019-05-03T21:08:52.899Z,10.87
2019-05-03T21:11:14.875Z,14.30
2019-05-03T21:13:45.009Z,14.13
2019-05-03T21:16:51.308Z,10.10
2019-05-03T21:19:47.983Z,10.87
2019-05-03T21:22:19.542Z,11.97
2019-05-03T21:25:00.143Z,11.17
2019-05-03T21:27:28.700Z,11.63
2019-05-03T21:29:57.039Z,11.63
2019-05-03T21:32:25.722Z,12.87
2019-05-03T21:34:55.765Z,13.13
2019-05-03T21:37:24.725Z,11.20
2019-05-03T21:39:54.792Z,12.43
2019-05-03T21:42:23.807Z,11.63
2019-05-03T21:44:52.433Z,12.83
2019-05-03T21:47:35.203Z,11.17
2019-05-03T21:50:04.714Z,13.40
2019-05-03T21:52:35.855Z,25.13
2019-05-03T21:55:05.450Z,41.67
2019-05-03T21:57:34.504Z,37.20
2019-05-03T22:00:05.529Z,31.93
2019-05-03T22:02:35.764Z,26.30
2019-05-03T22:05:04.587Z,22.33
2019-05-03T22:07:34.920Z,20.03
2019-05-03T22:10:05.023Z,22.67
2019-05-03T22:12:33.810Z,15.67
2019-05-03T22:15:18.866Z,14.70
2019-05-03T22:18:02.129Z,14.00
2019-05-03T22:20:37.496Z,13.73
2019-05-03T22:23:14.950Z,12.83
2019-05-03T22:25:43.808Z,12.13
2019-05-03T22:28:12.278Z,10.60
2019-05-03T22:30:41.726Z,15.13
2019-05-03T22:33:10.071Z,11.83
2019-05-03T22:35:38.839Z,10.17
2019-05-03T22:38:07.571Z,9.87
2019-05-03T22:40:36.424Z,9.93
2019-05-03T22:43:05.096Z,9.90
2019-05-03T22:45:34.803Z,10.47
2019-05-03T22:48:05.208Z,11.60
2019-05-03T22:50:34.484Z,10.97
2019-05-03T22:53:03.117Z,11.37
2019-05-03T22:55:31.796Z,11.93
2019-05-03T22:58:00.651Z,10.30
2019-05-03T23:00:29.038Z,12.70
2019-05-03T23:02:57.346Z,12.47
2019-05-03T23:05:26.164Z,12.63
2019-05-03T23:07:55.248Z,15.00
2019-05-03T23:10:25.703Z,10.77
2019-05-03T23:12:54.500Z,11.77
2019-05-03T23:15:24.395Z,12.93
2019-05-03T23:17:54.552Z,12.90
2019-05-03T23:20:36.700Z,14.47
2019-05-03T23:23:05.451Z,14.40
2019-05-03T23:25:35.565Z,12.97
2019-05-03T23:28:04.119Z,12.53
2019-05-03T23:30:32.858Z,14.33
2019-05-03T23:33:01.534Z,14.10
2019-05-03T23:35:30.275Z,13.07
2019-05-03T23:37:58.924Z,14.13
2019-05-03T23:40:27.402Z,13.03
2019-05-03T23:42:55.829Z,12.00
2019-05-03T23:45:25.618Z,13.60
2019-05-03T23:47:55.352Z,11.87
2019-05-03T23:50:24.849Z,15.53
2019-05-03T23:52:54.497Z,16.33
2019-05-03T23:55:44.919Z,13.63
2019-05-03T23:58:13.496Z,12.73
